createdAt,value
2022-08-04T00:04:32.321Z,101285.41
2022-08-04T00:10:03.073Z,101281.16
2022-08-04T00:15:09.054Z,101285.56
2022-08-04T00:20:20.935Z,101276.19
2022-08-04T00:25:22.919Z,101275.28
2022-08-04T00:30:24.875Z,101274.00
2022-08-04T00:35:29.185Z,101269.78
2022-08-04T00:40:36.432Z,101266.22
2022-08-04T00:46:09.517Z,101260.22
2022-08-04T00:51:22.628Z,101256.44
2022-08-04T00:56:48.799Z,101258.13
2022-08-04T01:02:00.082Z,101248.13
2022-08-04T01:07:17.893Z,101250.28
2022-08-04T01:12:43.513Z,101236.75
2022-08-04T01:18:01.427Z,101247.34
2022-08-04T01:23:36.747Z,101247.41
2022-08-04T01:29:07.395Z,101238.22
2022-08-04T01:34:13.570Z,101228.50
2022-08-04T01:39:33.879Z,101231.59
2022-08-04T01:44:37.134Z,101234.22
2022-08-04T01:49:40.103Z,101233.13
2022-08-04T01:54:43.084Z,101231.97
2022-08-04T01:59:47.453Z,101228.78
2022-08-04T02:04:48.998Z,101211.38
2022-08-04T02:10:03.910Z,101226.53
2022-08-04T02:15:21.699Z,101225.47
2022-08-04T02:20:25.494Z,101206.94
2022-08-04T02:25:30.073Z,101202.19
2022-08-04T02:30:40.369Z,101195.56
2022-08-04T02:35:46.491Z,101195.81
2022-08-04T02:40:54.029Z,101203.03
2022-08-04T02:46:00.537Z,101190.31
2022-08-04T02:51:04.046Z,101183.06
2022-08-04T02:56:07.775Z,101195.81
2022-08-04T03:01:09.341Z,101201.34
2022-08-04T03:06:13.677Z,101197.50
2022-08-04T03:11:41.551Z,101190.41
2022-08-04T03:16:55.042Z,101199.19
2022-08-04T03:22:26.797Z,101188.25
2022-08-04T03:27:46.958Z,101181.13
2022-08-04T03:33:16.393Z,101177.59
2022-08-04T03:38:32.364Z,101173.56
2022-08-04T03:44:06.287Z,101182.13
2022-08-04T03:49:26.034Z,101181.06
2022-08-04T03:54:39.911Z,101172.16
2022-08-04T03:59:53.539Z,101168.28
2022-08-04T04:05:27.816Z,101169.66
2022-08-04T04:10:59.343Z,101175.19
2022-08-04T04:16:13.099Z,101179.31
2022-08-04T04:21:33.635Z,101174.25
2022-08-04T04:26:39.145Z,101167.63
2022-08-04T04:31:48.205Z,101158.22
2022-08-04T04:37:10.922Z,101163.94
2022-08-04T04:42:38.336Z,101163.31
2022-08-04T04:47:43.271Z,101175.59
2022-08-04T04:53:49.679Z,101168.69
2022-08-04T04:58:54.454Z,101166.31
2022-08-04T05:04:17.023Z,101173.28
2022-08-04T05:09:32.010Z,101181.28
2022-08-04T05:14:41.599Z,101172.94
2022-08-04T05:20:06.903Z,101176.06
2022-08-04T05:25:22.716Z,101182.78
2022-08-04T05:30:27.468Z,101188.88
2022-08-04T05:35:50.468Z,101182.63
2022-08-04T05:40:58.371Z,101191.28
2022-08-04T05:46:00.982Z,101181.59
2022-08-04T05:51:04.439Z,101179.38
2022-08-04T05:56:07.254Z,101183.78
2022-08-04T06:01:10.616Z,101175.34
2022-08-04T06:06:14.248Z,101193.41
2022-08-04T06:11:17.023Z,101189.22
2022-08-04T06:16:28.910Z,101191.34
2022-08-04T06:21:33.177Z,101190.63
2022-08-04T06:26:36.778Z,101197.41
2022-08-04T06:32:28.797Z,101194.53
2022-08-04T06:37:43.090Z,101192.34
2022-08-04T06:42:44.335Z,101205.69
2022-08-04T06:47:47.722Z,101204.63
2022-08-04T06:52:49.256Z,101223.59
2022-08-04T06:57:51.133Z,101222.53
2022-08-04T07:02:53.395Z,101217.56
2022-08-04T07:07:58.060Z,101214.09
2022-08-04T07:13:01.441Z,101209.84
2022-08-04T07:18:04.575Z,101211.16
2022-08-04T07:23:07.091Z,101218.03
2022-08-04T07:28:08.823Z,101216.88
2022-08-04T07:33:11.098Z,101217.97
2022-08-04T07:38:13.225Z,101228.06
2022-08-04T07:43:18.059Z,101224.88
2022-08-04T07:48:22.627Z,101228.38
2022-08-04T07:53:55.529Z,101235.19
2022-08-04T07:58:47.793Z,101243.94
2022-08-04T08:03:53.873Z,101244.78
2022-08-04T08:08:56.183Z,101237.63
2022-08-04T08:13:58.085Z,101247.00
2022-08-04T08:19:01.107Z,101239.41
2022-08-04T08:24:02.804Z,101243.94
2022-08-04T08:29:04.390Z,101231.19
2022-08-04T08:34:06.248Z,101237.47
2022-08-04T08:39:17.995Z,101242.91
2022-08-04T08:44:58.265Z,101246.44
2022-08-04T08:50:23.756Z,101237.63
2022-08-04T08:55:49.067Z,101240.44
2022-08-04T09:01:09.144Z,101257.22
2022-08-04T09:06:41.882Z,101251.75
2022-08-04T09:12:06.650Z,101254.97
2022-08-04T09:17:20.708Z,101263.13
2022-08-04T09:22:28.301Z,101268.41
2022-08-04T09:27:38.952Z,101275.22
2022-08-04T09:33:02.225Z,101275.63
2022-08-04T09:38:41.270Z,101279.44
2022-08-04T09:44:42.267Z,101275.66
2022-08-04T09:49:25.523Z,101275.22
2022-08-04T09:54:53.879Z,101286.94
2022-08-04T10:00:07.659Z,101286.22
2022-08-04T10:05:16.374Z,101286.81
2022-08-04T10:10:30.170Z,101292.69
2022-08-04T10:15:43.447Z,101300.69
2022-08-04T10:21:12.269Z,101296.41
2022-08-04T10:26:41.430Z,101315.97
2022-08-04T10:31:49.340Z,101305.22
2022-08-04T10:37:06.354Z,101302.94
2022-08-04T10:42:27.375Z,101295.56
2022-08-04T10:47:38.093Z,101315.53
2022-08-04T10:52:55.103Z,101314.19
2022-08-04T10:58:02.189Z,101315.28
2022-08-04T11:03:26.702Z,101309.59
2022-08-04T11:09:00.751Z,101317.16
2022-08-04T11:14:06.913Z,101321.56
2022-08-04T11:19:08.864Z,101344.69
2022-08-04T11:24:22.803Z,101360.72
2022-08-04T11:29:56.114Z,101367.16
2022-08-04T11:35:02.064Z,101359.09
2022-08-04T11:40:22.988Z,101364.06
2022-08-04T11:45:41.660Z,101370.84
2022-08-04T11:50:45.079Z,101379.25
2022-08-04T11:56:07.656Z,101376.63
2022-08-04T12:01:21.727Z,101383.41
2022-08-04T12:06:29.645Z,101389.63
2022-08-04T12:12:03.001Z,101392.34
2022-08-04T12:17:05.837Z,101401.50
2022-08-04T12:22:15.943Z,101393.59
2022-08-04T12:27:30.793Z,101393.72
2022-08-04T12:33:03.701Z,101405.16
2022-08-04T12:38:11.873Z,101394.94
2022-08-04T12:43:44.406Z,101398.72
2022-08-04T12:48:48.056Z,101397.28
2022-08-04T12:53:51.742Z,101380.97
2022-08-04T12:59:00.437Z,101386.16
2022-08-04T13:04:22.125Z,101388.09
2022-08-04T13:09:34.001Z,101386.94
2022-08-04T13:14:38.295Z,101397.22
2022-08-04T13:19:46.123Z,101396.59
2022-08-04T13:25:18.024Z,101389.16
2022-08-04T13:30:18.636Z,101395.94
2022-08-04T13:35:55.264Z,101402.66
2022-08-04T13:40:48.561Z,101407.06
2022-08-04T13:45:51.352Z,101402.25
2022-08-04T13:50:53.676Z,101401.47
2022-08-04T13:56:00.537Z,101397.84
2022-08-04T14:01:16.010Z,101398.03
2022-08-04T14:06:20.233Z,101395.41
2022-08-04T14:12:09.340Z,101402.03
2022-08-04T14:17:00.602Z,101409.38
2022-08-04T14:22:02.186Z,101414.81
2022-08-04T14:27:03.734Z,101415.66
2022-08-04T14:32:11.700Z,101416.94
2022-08-04T14:37:20.688Z,101415.53
2022-08-04T14:42:53.780Z,101416.97
2022-08-04T14:47:58.008Z,101411.44
2022-08-04T14:53:04.975Z,101421.09
2022-08-04T14:58:36.645Z,101412.28
2022-08-04T15:03:29.552Z,101413.94
2022-08-04T15:08:31.983Z,101432.63
2022-08-04T15:13:33.981Z,101423.47
2022-08-04T15:18:38.897Z,101426.53
2022-08-04T15:23:41.069Z,101420.94
2022-08-04T15:28:50.360Z,101434.06
2022-08-04T15:33:54.301Z,101433.25
2022-08-04T15:39:21.953Z,101435.44
2022-08-04T15:44:23.485Z,101440.09
2022-08-04T15:49:25.663Z,101427.38
2022-08-04T15:54:32.353Z,101432.72
2022-08-04T15:59:58.474Z,101431.56
2022-08-04T16:05:18.004Z,101431.56
2022-08-04T16:10:29.638Z,101438.81
2022-08-04T16:15:48.740Z,101450.72
2022-08-04T16:20:59.470Z,101455.94
2022-08-04T16:26:02.249Z,101453.25
2022-08-04T16:31:05.391Z,101452.66
2022-08-04T16:36:12.002Z,101454.50
2022-08-04T16:41:44.544Z,101464.72
2022-08-04T16:47:08.356Z,101463.91
2022-08-04T16:52:13.346Z,101462.59
2022-08-04T16:57:20.809Z,101468.91
2022-08-04T17:02:26.631Z,101468.69
2022-08-04T17:07:28.299Z,101470.03
2022-08-04T17:12:29.862Z,101475.69
2022-08-04T17:18:05.661Z,101478.00
2022-08-04T17:24:15.571Z,101471.31
2022-08-04T17:28:47.883Z,101476.78
2022-08-04T17:33:55.173Z,101477.13
2022-08-04T17:39:00.581Z,101482.56
2022-08-04T17:44:07.366Z,101473.22
2022-08-04T17:49:18.021Z,101481.50
2022-08-04T17:54:29.832Z,101482.19
2022-08-04T17:59:55.760Z,101491.50
2022-08-04T18:05:05.638Z,101488.31
2022-08-04T18:10:32.980Z,101493.09
2022-08-04T18:15:44.216Z,101492.44
2022-08-04T18:20:50.130Z,101506.19
2022-08-04T18:25:52.370Z,101505.53
2022-08-04T18:30:56.444Z,101525.50
2022-08-04T18:36:33.708Z,101526.91
2022-08-04T18:41:19.511Z,101519.94
2022-08-04T18:46:27.410Z,101534.53
2022-08-04T18:51:31.676Z,101536.75
2022-08-04T18:56:34.016Z,101548.41
2022-08-04T19:02:13.638Z,101533.31
2022-08-04T19:07:23.160Z,101513.22
2022-08-04T19:12:26.645Z,101522.03
2022-08-04T19:17:53.456Z,101526.38
2022-08-04T19:28:17.495Z,101545.28
2022-08-04T19:33:25.249Z,101527.88
2022-08-04T19:38:27.162Z,101539.69
2022-08-04T19:43:28.754Z,101554.31
2022-08-04T19:48:33.269Z,101560.13
2022-08-04T19:53:37.531Z,101575.31
2022-08-04T19:58:41.529Z,101570.81
2022-08-04T20:04:09.750Z,101564.88
2022-08-04T20:09:25.881Z,101570.66
2022-08-04T20:14:32.126Z,101575.19
2022-08-04T20:19:34.475Z,101570.53
2022-08-04T20:24:44.190Z,101570.06
2022-08-04T20:29:55.625Z,101569.47
2022-08-04T20:35:00.300Z,101580.84
2022-08-04T20:40:02.305Z,101577.00
2022-08-04T20:45:07.231Z,101582.16
2022-08-04T20:50:18.165Z,101587.53
2022-08-04T20:55:31.639Z,101595.41
2022-08-04T21:00:56.230Z,101610.97
2022-08-04T21:05:58.822Z,101606.06
2022-08-04T21:11:06.773Z,101611.16
2022-08-04T21:16:08.649Z,101625.03
2022-08-04T21:21:10.237Z,101620.13
2022-08-04T21:26:22.747Z,101624.41
2022-08-04T21:31:27.513Z,101610.53
2022-08-04T21:36:29.409Z,101614.59
2022-08-04T21:41:33.380Z,101618.44
2022-08-04T21:46:44.245Z,101618.44
2022-08-04T21:51:58.121Z,101611.63
2022-08-04T21:57:03.552Z,101621.41
2022-08-04T22:02:05.365Z,101620.34
2022-08-04T22:07:09.383Z,101622.28
2022-08-04T22:12:12.359Z,101616.09
2022-08-04T22:17:14.090Z,101628.88
2022-08-04T22:22:24.673Z,101608.63
2022-08-04T22:27:47.539Z,101611.19
2022-08-04T22:32:50.356Z,101612.00
2022-08-04T22:38:05.579Z,101605.81
2022-08-04T22:43:32.254Z,101587.91
2022-08-04T22:48:32.770Z,101591.31
2022-08-04T22:53:35.382Z,101584.72
2022-08-04T22:58:45.385Z,101570.84
2022-08-04T23:03:56.105Z,101572.56
2022-08-04T23:08:57.863Z,101563.81
2022-08-04T23:14:00.860Z,101559.13
2022-08-04T23:19:09.599Z,101561.91
2022-08-04T23:24:11.815Z,101551.25
2022-08-04T23:29:15.025Z,101562.09
2022-08-04T23:34:18.697Z,101552.94
2022-08-04T23:39:20.783Z,101548.03
2022-08-04T23:44:26.735Z,101546.31
2022-08-04T23:49:43.725Z,101556.53
2022-08-04T23:54:46.692Z,101579.13
2022-08-04T23:59:54.212Z,101582.28
